createdAt,value
2018-08-03T00:00:00.414Z,99811.83
2018-08-03T00:02:29.105Z,99813.52
2018-08-03T00:04:57.739Z,99811.28
2018-08-03T00:07:26.561Z,99814.73
2018-08-03T00:09:55.352Z,99811.12
2018-08-03T00:12:24.059Z,99809.54
2018-08-03T00:14:52.798Z,99799.91
2018-08-03T00:17:21.513Z,99799.45
2018-08-03T00:19:50.177Z,99798.72
2018-08-03T00:22:18.869Z,99792.19
2018-08-03T00:24:47.644Z,99791.23
2018-08-03T00:27:16.369Z,99795.65
2018-08-03T00:29:45.132Z,99790.89
2018-08-03T00:32:13.955Z,99790.82
2018-08-03T00:34:42.829Z,99783.38
2018-08-03T00:37:11.622Z,99788.05
2018-08-03T00:39:40.388Z,99786.28
2018-08-03T00:42:09.198Z,99787.09
2018-08-03T00:44:37.994Z,99787.75
2018-08-03T00:47:06.767Z,99783.25
2018-08-03T00:49:35.517Z,99781.16
2018-08-03T00:52:04.267Z,99786.23
2018-08-03T00:54:33.109Z,99783.88
2018-08-03T00:57:01.845Z,99789.42
2018-08-03T00:59:30.594Z,99790.06
2018-08-03T01:01:59.255Z,99792.21
2018-08-03T01:04:27.982Z,99793.45
2018-08-03T01:06:56.698Z,99799.50
2018-08-03T01:09:25.438Z,99801.63
2018-08-03T01:11:54.129Z,99800.31
2018-08-03T01:14:22.901Z,99797.12
2018-08-03T01:16:51.678Z,99797.59
2018-08-03T01:19:20.450Z,99796.56
2018-08-03T01:21:49.218Z,99794.41
2018-08-03T01:24:17.949Z,99804.41
2018-08-03T01:26:46.741Z,99800.31
2018-08-03T01:29:15.491Z,99799.70
2018-08-03T01:31:44.312Z,99799.00
2018-08-03T01:34:13.162Z,99798.08
2018-08-03T01:36:41.889Z,99798.80
2018-08-03T01:39:10.626Z,99798.14
2018-08-03T01:41:39.350Z,99804.70
2018-08-03T01:44:08.145Z,99808.30
2018-08-03T01:46:36.863Z,99804.73
2018-08-03T01:49:05.596Z,99806.36
2018-08-03T01:51:34.329Z,99809.99
2018-08-03T01:54:03.042Z,99803.86
2018-08-03T01:56:31.811Z,99808.56
2018-08-03T01:59:00.558Z,99805.48
2018-08-03T02:01:29.295Z,99819.89
2018-08-03T02:03:58.004Z,99804.91
2018-08-03T02:06:28.775Z,99797.18
2018-08-03T02:08:57.538Z,99800.75
2018-08-03T02:11:31.698Z,99808.31
2018-08-03T02:14:00.433Z,99812.45
2018-08-03T02:16:29.182Z,99808.30
2018-08-03T02:18:57.901Z,99806.47
2018-08-03T02:21:26.645Z,99806.73
2018-08-03T02:23:55.393Z,99804.83
2018-08-03T02:26:24.180Z,99809.61
2018-08-03T02:28:53.342Z,99802.78
2018-08-03T02:31:22.095Z,99804.44
2018-08-03T02:33:51.098Z,99810.41
2018-08-03T02:36:19.821Z,99807.02
2018-08-03T02:38:48.567Z,99808.11
2018-08-03T02:41:17.311Z,99804.83
2018-08-03T02:43:46.016Z,99805.29
2018-08-03T02:46:14.815Z,99806.62
2018-08-03T02:48:43.561Z,99810.14
2018-08-03T02:51:12.291Z,99809.77
2018-08-03T02:53:41.019Z,99808.77
2018-08-03T02:56:09.725Z,99813.53
2018-08-03T02:58:38.479Z,99809.97
2018-08-03T03:01:07.425Z,99814.08
2018-08-03T03:03:36.224Z,99819.63
2018-08-03T03:06:05.055Z,99815.31
2018-08-03T03:08:33.800Z,99814.86
2018-08-03T03:11:02.530Z,99820.59
2018-08-03T03:13:31.311Z,99822.30
2018-08-03T03:16:00.063Z,99821.98
2018-08-03T03:18:28.769Z,99822.76
2018-08-03T03:20:57.604Z,99825.84
2018-08-03T03:23:26.446Z,99818.18
2018-08-03T03:25:55.169Z,99821.34
2018-08-03T03:28:23.937Z,99822.96
2018-08-03T03:30:52.667Z,99822.58
2018-08-03T03:33:21.415Z,99823.78
2018-08-03T03:35:50.123Z,99830.13
2018-08-03T03:38:18.877Z,99825.46
2018-08-03T03:40:47.611Z,99828.80
2018-08-03T03:43:16.404Z,99828.17
2018-08-03T03:45:45.199Z,99836.28
2018-08-03T03:48:13.994Z,99830.41
2018-08-03T03:50:42.746Z,99831.63
2018-08-03T03:53:11.646Z,99837.05
2018-08-03T03:55:40.411Z,99831.82
2018-08-03T03:58:09.227Z,99830.59
2018-08-03T04:00:37.942Z,99828.83
2018-08-03T04:03:06.702Z,99834.78
2018-08-03T04:05:35.407Z,99830.81
2018-08-03T04:08:04.197Z,99827.47
2018-08-03T04:10:32.921Z,99828.05
2018-08-03T04:13:01.702Z,99827.84
2018-08-03T04:15:30.420Z,99834.53
2018-08-03T04:17:59.135Z,99841.77
2018-08-03T04:20:27.898Z,99836.35
2018-08-03T04:22:56.598Z,99835.05
2018-08-03T04:25:25.591Z,99832.41
2018-08-03T04:27:54.379Z,99834.45
2018-08-03T04:30:23.053Z,99839.02
2018-08-03T04:32:51.660Z,99840.64
2018-08-03T04:35:20.413Z,99845.23
2018-08-03T04:37:49.126Z,99841.05
2018-08-03T04:40:17.879Z,99843.78
2018-08-03T04:42:46.577Z,99843.86
2018-08-03T04:45:15.295Z,99851.64
2018-08-03T04:47:44.043Z,99851.34
2018-08-03T04:50:12.733Z,99852.85
2018-08-03T04:52:41.446Z,99856.64
2018-08-03T04:55:10.490Z,99859.86
2018-08-03T04:57:39.449Z,99863.17
2018-08-03T05:00:08.337Z,99861.95
2018-08-03T05:02:38.619Z,99868.21
2018-08-03T05:05:07.473Z,99863.50
2018-08-03T05:07:36.173Z,99872.86
2018-08-03T05:10:05.337Z,99871.45
2018-08-03T05:12:34.123Z,99867.62
2018-08-03T05:15:02.810Z,99872.60
2018-08-03T05:17:31.540Z,99873.24
2018-08-03T05:20:00.285Z,99866.86
2018-08-03T05:22:29.066Z,99880.72
2018-08-03T05:24:57.742Z,99880.30
2018-08-03T05:27:26.478Z,99879.13
2018-08-03T05:29:55.248Z,99884.02
2018-08-03T05:32:23.998Z,99876.80
2018-08-03T05:34:52.706Z,99883.59
2018-08-03T05:37:21.419Z,99882.80
2018-08-03T05:39:50.277Z,99870.17
2018-08-03T05:42:19.178Z,99883.94
2018-08-03T05:44:47.908Z,99878.78
2018-08-03T05:47:16.827Z,99887.44
2018-08-03T05:49:45.654Z,99883.25
2018-08-03T05:52:14.505Z,99889.66
2018-08-03T05:54:43.298Z,99901.58
2018-08-03T05:57:12.083Z,99903.14
2018-08-03T05:59:41.097Z,99904.73
2018-08-03T06:02:10.079Z,99901.67
2018-08-03T06:04:38.921Z,99901.83
2018-08-03T06:07:08.685Z,99895.81
2018-08-03T06:09:37.515Z,99894.56
2018-08-03T06:12:06.290Z,99897.35
2018-08-03T06:14:35.072Z,99898.63
2018-08-03T06:17:03.925Z,99893.72
2018-08-03T06:19:33.429Z,99886.25
2018-08-03T06:22:02.277Z,99888.52
2018-08-03T06:24:31.378Z,99890.69
2018-08-03T06:27:00.397Z,99891.66
2018-08-03T06:29:29.329Z,99892.38
2018-08-03T06:31:58.062Z,99893.45
2018-08-03T06:34:26.845Z,99894.94
2018-08-03T06:36:55.692Z,99893.72
2018-08-03T06:39:24.542Z,99900.05
2018-08-03T06:41:53.569Z,99898.62
2018-08-03T06:44:22.611Z,99899.58
2018-08-03T06:46:51.432Z,99902.69
2018-08-03T06:49:20.182Z,99903.14
2018-08-03T06:51:49.006Z,99907.34
2018-08-03T06:54:19.430Z,99912.11
2018-08-03T06:56:48.334Z,99908.66
2018-08-03T06:59:17.178Z,99912.81
2018-08-03T07:01:46.226Z,99912.70
2018-08-03T07:04:15.369Z,99913.37
2018-08-03T07:06:44.130Z,99909.31
2018-08-03T07:09:13.432Z,99913.81
2018-08-03T07:11:42.094Z,99909.25
2018-08-03T07:14:11.041Z,99905.48
2018-08-03T07:16:40.114Z,99905.22
2018-08-03T07:19:08.908Z,99904.41
2018-08-03T07:21:37.581Z,99901.96
2018-08-03T07:24:06.775Z,99907.12
2018-08-03T07:26:35.639Z,99905.36
2018-08-03T07:29:04.576Z,99900.05
2018-08-03T07:31:38.464Z,99899.18
2018-08-03T07:34:08.188Z,99900.31
2018-08-03T07:36:37.126Z,99902.79
2018-08-03T07:39:07.725Z,99897.97
2018-08-03T07:41:36.542Z,99904.86
2018-08-03T07:44:05.603Z,99899.39
2018-08-03T07:46:34.436Z,99898.92
2018-08-03T07:49:03.202Z,99901.78
2018-08-03T07:51:31.975Z,99901.30
2018-08-03T07:54:00.799Z,99896.46
2018-08-03T07:56:29.575Z,99899.03
2018-08-03T07:58:58.342Z,99896.44
2018-08-03T08:01:27.090Z,99889.78
2018-08-03T08:03:55.939Z,99888.16
2018-08-03T08:06:24.870Z,99892.26
2018-08-03T08:08:53.630Z,99891.32
2018-08-03T08:11:22.449Z,99883.16
2018-08-03T08:13:51.167Z,99884.27
2018-08-03T08:16:19.862Z,99888.28
2018-08-03T08:18:48.550Z,99889.27
2018-08-03T08:21:17.257Z,99887.45
2018-08-03T08:23:46.042Z,99889.19
2018-08-03T08:26:14.892Z,99887.23
2018-08-03T08:28:43.517Z,99886.48
2018-08-03T08:31:12.326Z,99883.70
2018-08-03T08:33:41.006Z,99884.16
2018-08-03T08:36:09.906Z,99883.11
2018-08-03T08:38:38.693Z,99890.91
2018-08-03T08:41:07.751Z,99898.62
2018-08-03T08:43:36.594Z,99886.91
2018-08-03T08:46:05.161Z,99883.26
2018-08-03T08:48:33.831Z,99889.53
2018-08-03T08:51:02.587Z,99889.30
2018-08-03T08:53:31.529Z,99891.08
2018-08-03T08:56:00.307Z,99882.21
2018-08-03T08:58:29.069Z,99879.31
2018-08-03T09:00:57.836Z,99880.02
2018-08-03T09:03:26.667Z,99889.09
2018-08-03T09:05:55.731Z,99884.45
2018-08-03T09:08:24.833Z,99877.36
2018-08-03T09:10:54.984Z,99886.41
2018-08-03T09:13:24.599Z,99877.06
2018-08-03T09:15:55.310Z,99885.11
2018-08-03T09:18:24.900Z,99885.13
2018-08-03T09:20:55.662Z,99880.32
2018-08-03T09:23:25.581Z,99874.33
2018-08-03T09:25:56.097Z,99876.44
2018-08-03T09:28:25.901Z,99876.16
2018-08-03T09:30:57.470Z,99868.16
2018-08-03T09:33:27.659Z,99869.84
2018-08-03T09:35:56.471Z,99870.64
2018-08-03T09:38:26.239Z,99863.48
2018-08-03T09:40:56.587Z,99863.75
2018-08-03T09:43:25.378Z,99854.98
2018-08-03T09:45:54.017Z,99863.67
2018-08-03T09:48:22.767Z,99856.80
2018-08-03T09:50:51.495Z,99850.50
2018-08-03T09:53:20.228Z,99857.95
2018-08-03T09:55:49.088Z,99857.76
2018-08-03T09:58:17.909Z,99851.73
2018-08-03T10:00:51.875Z,99845.98
2018-08-03T10:03:20.612Z,99847.93
2018-08-03T10:05:49.281Z,99862.09
2018-08-03T10:08:17.969Z,99845.01
2018-08-03T10:10:46.609Z,99845.05
2018-08-03T10:13:16.172Z,99854.40
2018-08-03T10:15:44.949Z,99849.92
2018-08-03T10:18:13.674Z,99837.11
2018-08-03T10:20:42.407Z,99840.94
2018-08-03T10:23:11.149Z,99847.11
2018-08-03T10:25:39.905Z,99838.05
2018-08-03T10:28:08.638Z,99834.84
2018-08-03T10:30:38.604Z,99833.99
2018-08-03T10:33:07.836Z,99832.64
2018-08-03T10:35:36.574Z,99821.08
2018-08-03T10:38:05.210Z,99827.19
2018-08-03T10:40:33.941Z,99821.97
2018-08-03T10:43:02.822Z,99818.61
2018-08-03T10:45:31.555Z,99811.84
2018-08-03T10:48:00.372Z,99813.25
2018-08-03T10:50:29.203Z,99809.67
2018-08-03T10:53:02.431Z,99804.88
2018-08-03T10:55:34.517Z,99804.70
2018-08-03T10:58:03.541Z,99807.16
2018-08-03T11:00:32.884Z,99797.10
2018-08-03T11:03:01.842Z,99812.91
2018-08-03T11:05:30.749Z,99797.16
2018-08-03T11:07:59.437Z,99803.86
2018-08-03T11:10:28.588Z,99798.39
2018-08-03T11:12:57.417Z,99789.09
2018-08-03T11:15:26.189Z,99794.71
2018-08-03T11:17:54.931Z,99797.00
2018-08-03T11:20:23.767Z,99797.22
2018-08-03T11:22:52.471Z,99792.45
2018-08-03T11:25:21.300Z,99784.20
2018-08-03T11:27:50.024Z,99783.38
2018-08-03T11:30:18.851Z,99777.52
2018-08-03T11:32:47.539Z,99765.41
2018-08-03T11:35:17.525Z,99767.56
2018-08-03T11:37:52.854Z,99761.92
2018-08-03T11:40:21.613Z,99763.95
2018-08-03T11:42:50.340Z,99759.80
2018-08-03T11:45:19.218Z,99755.66
2018-08-03T11:47:48.163Z,99743.04
2018-08-03T11:50:17.128Z,99746.84
2018-08-03T11:52:45.836Z,99743.35
2018-08-03T11:55:14.633Z,99737.52
2018-08-03T11:57:43.337Z,99731.53
2018-08-03T12:00:12.208Z,99730.27
2018-08-03T12:02:40.892Z,99727.51
2018-08-03T12:05:09.656Z,99726.87
2018-08-03T12:07:38.429Z,99726.96
2018-08-03T12:10:07.147Z,99738.05
2018-08-03T12:12:35.909Z,99716.16
2018-08-03T12:15:04.621Z,99716.48
2018-08-03T12:17:33.435Z,99712.67
2018-08-03T12:20:02.151Z,99720.09
2018-08-03T12:22:30.878Z,99711.02
2018-08-03T12:24:59.559Z,99709.34
2018-08-03T12:27:28.253Z,99704.66
2018-08-03T12:29:56.950Z,99709.11
2018-08-03T12:32:26.020Z,99705.91
2018-08-03T12:34:55.170Z,99703.05
2018-08-03T12:37:23.958Z,99706.29
2018-08-03T12:39:52.659Z,99701.72
2018-08-03T12:42:21.377Z,99701.80
2018-08-03T12:44:50.055Z,99703.42
2018-08-03T12:47:18.759Z,99702.98
2018-08-03T12:49:47.504Z,99697.63
2018-08-03T12:52:16.141Z,99707.61
2018-08-03T12:54:44.860Z,99695.25
2018-08-03T12:57:13.647Z,99702.55
2018-08-03T12:59:42.421Z,99695.63
2018-08-03T13:02:11.090Z,99694.37
2018-08-03T13:04:39.886Z,99696.04
2018-08-03T13:07:08.682Z,99698.63
2018-08-03T13:09:39.462Z,99685.12
2018-08-03T13:12:08.249Z,99688.83
2018-08-03T13:14:37.108Z,99695.58
2018-08-03T13:17:05.850Z,99677.73
2018-08-03T13:19:34.574Z,99685.88
2018-08-03T13:22:03.330Z,99680.93
2018-08-03T13:24:32.023Z,99680.81
2018-08-03T13:27:00.761Z,99679.72
2018-08-03T13:29:29.539Z,99681.84
2018-08-03T13:31:58.255Z,99678.94
2018-08-03T13:34:27.023Z,99670.25
2018-08-03T13:36:55.703Z,99671.53
2018-08-03T13:39:24.482Z,99669.14
2018-08-03T13:41:53.179Z,99663.84
2018-08-03T13:44:21.893Z,99663.25
2018-08-03T13:46:50.653Z,99652.43
2018-08-03T13:49:19.256Z,99650.93
2018-08-03T13:51:49.018Z,99656.06
2018-08-03T13:54:18.301Z,99650.70
2018-08-03T13:56:47.024Z,99662.14
2018-08-03T13:59:15.717Z,99654.77
2018-08-03T14:01:55.297Z,99655.30
2018-08-03T14:04:23.996Z,99640.38
2018-08-03T14:06:52.684Z,99639.14
2018-08-03T14:09:21.330Z,99631.89
2018-08-03T14:12:06.840Z,99633.52
2018-08-03T14:15:42.627Z,99630.94
2018-08-03T14:18:30.991Z,99629.70
2018-08-03T14:20:59.667Z,99624.95
2018-08-03T14:23:28.413Z,99625.41
2018-08-03T14:25:57.041Z,99620.80
2018-08-03T14:28:25.744Z,99620.73
2018-08-03T14:30:54.563Z,99613.16
2018-08-03T14:33:23.335Z,99615.24
2018-08-03T14:35:52.344Z,99606.72
2018-08-03T14:38:20.930Z,99606.36
2018-08-03T14:40:49.639Z,99608.27
2018-08-03T14:43:18.805Z,99608.05
2018-08-03T14:45:47.803Z,99602.34
2018-08-03T14:48:16.958Z,99601.87
2018-08-03T14:50:45.827Z,99596.08
2018-08-03T14:53:14.441Z,99598.03
2018-08-03T14:55:43.051Z,99591.92
2018-08-03T14:58:11.762Z,99592.61
2018-08-03T15:00:41.329Z,99582.72
2018-08-03T15:03:10.432Z,99587.44
2018-08-03T15:05:39.636Z,99593.49
2018-08-03T15:08:08.298Z,99595.98
2018-08-03T15:10:36.880Z,99582.75
2018-08-03T15:13:05.683Z,99586.09
2018-08-03T15:15:34.289Z,99584.46
2018-08-03T15:18:02.959Z,99587.09
2018-08-03T15:20:31.673Z,99582.34
2018-08-03T15:23:00.308Z,99585.83
2018-08-03T15:25:28.942Z,99572.20
2018-08-03T15:27:57.546Z,99582.00
2018-08-03T15:30:26.141Z,99575.00
2018-08-03T15:32:54.755Z,99573.38
2018-08-03T15:35:23.449Z,99568.41
2018-08-03T15:37:52.079Z,99571.30
2018-08-03T15:40:20.715Z,99562.95
2018-08-03T15:42:49.400Z,99562.50
2018-08-03T15:45:18.002Z,99557.91
2018-08-03T15:47:46.679Z,99562.99
2018-08-03T15:50:15.294Z,99558.52
2018-08-03T15:52:43.903Z,99557.93
2018-08-03T15:55:12.545Z,99559.83
2018-08-03T15:57:47.500Z,99555.75
2018-08-03T16:00:16.182Z,99553.57
2018-08-03T16:02:44.837Z,99557.92
2018-08-03T16:05:13.454Z,99555.97
2018-08-03T16:07:42.101Z,99555.77
2018-08-03T16:10:10.863Z,99553.78
2018-08-03T16:12:39.522Z,99550.16
2018-08-03T16:15:08.390Z,99548.91
2018-08-03T16:17:37.047Z,99551.41
2018-08-03T16:20:06.174Z,99551.67
2018-08-03T16:22:35.049Z,99555.41
2018-08-03T16:25:07.333Z,99543.03
2018-08-03T16:27:36.097Z,99552.73
2018-08-03T16:30:05.388Z,99551.53
2018-08-03T16:32:34.122Z,99554.39
2018-08-03T16:35:02.907Z,99555.32
2018-08-03T16:37:32.004Z,99547.02
2018-08-03T16:40:00.678Z,99554.50
2018-08-03T16:42:30.391Z,99564.97
2018-08-03T16:44:59.113Z,99549.89
2018-08-03T16:47:27.831Z,99553.65
2018-08-03T16:49:56.596Z,99548.00
2018-08-03T16:52:25.417Z,99560.36
2018-08-03T16:54:54.106Z,99567.27
2018-08-03T16:57:24.109Z,99564.42
2018-08-03T16:59:52.984Z,99556.88
2018-08-03T17:02:21.999Z,99554.49
2018-08-03T17:04:50.736Z,99556.20
2018-08-03T17:07:19.520Z,99553.47
2018-08-03T17:09:48.224Z,99552.76
2018-08-03T17:12:17.421Z,99557.86
2018-08-03T17:14:46.078Z,99566.59
2018-08-03T17:17:14.785Z,99572.69
2018-08-03T17:19:43.586Z,99570.28
2018-08-03T17:22:12.755Z,99575.66
2018-08-03T17:24:41.570Z,99574.16
2018-08-03T17:27:10.370Z,99570.39
2018-08-03T17:29:39.404Z,99577.66
2018-08-03T17:32:08.163Z,99574.33
2018-08-03T17:34:36.920Z,99576.92
2018-08-03T17:37:05.685Z,99575.63
2018-08-03T17:39:34.427Z,99577.22
2018-08-03T17:42:03.301Z,99572.89
2018-08-03T17:44:31.978Z,99572.25
2018-08-03T17:47:00.730Z,99570.00
2018-08-03T17:49:29.459Z,99576.25
2018-08-03T17:51:58.310Z,99569.45
2018-08-03T17:54:27.181Z,99579.03
2018-08-03T17:56:55.935Z,99588.24
2018-08-03T17:59:24.646Z,99574.69
2018-08-03T18:01:53.444Z,99580.06
2018-08-03T18:04:22.116Z,99574.69
2018-08-03T18:06:51.022Z,99576.80
2018-08-03T18:09:19.820Z,99581.63
2018-08-03T18:11:55.131Z,99576.72
2018-08-03T18:14:24.012Z,99580.80
2018-08-03T18:16:53.070Z,99589.30
2018-08-03T18:19:21.712Z,99591.55
2018-08-03T18:21:50.450Z,99587.88
2018-08-03T18:24:19.188Z,99590.20
2018-08-03T18:26:47.976Z,99591.98
2018-08-03T18:29:19.932Z,99593.75
2018-08-03T18:31:48.720Z,99594.05
2018-08-03T18:34:17.454Z,99594.45
2018-08-03T18:36:46.235Z,99596.44
2018-08-03T18:39:14.926Z,99594.10
2018-08-03T18:41:43.700Z,99598.22
2018-08-03T18:44:12.646Z,99597.64
2018-08-03T18:46:41.691Z,99604.41
2018-08-03T18:49:11.194Z,99606.91
2018-08-03T18:51:40.181Z,99612.75
2018-08-03T18:54:09.265Z,99610.12
2018-08-03T18:56:39.260Z,99617.52
2018-08-03T18:59:08.064Z,99616.08
2018-08-03T19:01:36.867Z,99618.39
2018-08-03T19:04:05.575Z,99620.17
2018-08-03T19:06:34.361Z,99625.54
2018-08-03T19:09:03.158Z,99633.58
2018-08-03T19:11:32.071Z,99630.94
2018-08-03T19:14:00.789Z,99632.59
2018-08-03T19:16:29.539Z,99640.17
2018-08-03T19:18:58.327Z,99640.17
2018-08-03T19:21:27.112Z,99640.98
2018-08-03T19:23:55.921Z,99649.20
2018-08-03T19:26:24.657Z,99652.37
2018-08-03T19:28:53.486Z,99651.58
2018-08-03T19:31:22.355Z,99650.58
2018-08-03T19:33:51.070Z,99648.71
2018-08-03T19:36:19.794Z,99647.70
2018-08-03T19:38:48.484Z,99650.70
2018-08-03T19:41:17.126Z,99655.12
2018-08-03T19:43:45.770Z,99663.38
2018-08-03T19:46:14.419Z,99649.95
2018-08-03T19:48:43.110Z,99649.73
2018-08-03T19:51:11.894Z,99647.30
2018-08-03T19:53:40.581Z,99650.37
2018-08-03T19:56:09.270Z,99650.78
2018-08-03T19:58:37.986Z,99651.16
2018-08-03T20:01:06.642Z,99650.57
2018-08-03T20:03:35.898Z,99650.64
2018-08-03T20:06:04.572Z,99652.85
2018-08-03T20:08:33.271Z,99647.41
2018-08-03T20:11:01.946Z,99647.68
2018-08-03T20:13:30.669Z,99646.64
2018-08-03T20:15:59.449Z,99641.88
2018-08-03T20:18:29.078Z,99647.86
2018-08-03T20:20:57.857Z,99656.72
2018-08-03T20:23:26.578Z,99656.81
2018-08-03T20:25:55.336Z,99655.99
2018-08-03T20:28:24.118Z,99657.80
2018-08-03T20:30:52.797Z,99655.08
2018-08-03T20:33:21.494Z,99662.97
2018-08-03T20:35:50.250Z,99660.94
2018-08-03T20:38:19.143Z,99664.55
2018-08-03T20:40:47.860Z,99663.83
2018-08-03T20:43:16.537Z,99667.30
2018-08-03T20:45:45.220Z,99665.63
2018-08-03T20:48:14.183Z,99668.98
2018-08-03T20:50:42.967Z,99672.18
2018-08-03T20:53:11.735Z,99675.52
2018-08-03T20:55:40.422Z,99673.37
2018-08-03T20:58:09.214Z,99673.48
2018-08-03T21:00:37.919Z,99673.61
2018-08-03T21:03:06.700Z,99665.98
2018-08-03T21:05:35.526Z,99665.13
2018-08-03T21:08:04.213Z,99670.48
2018-08-03T21:10:32.959Z,99670.14
2018-08-03T21:13:01.690Z,99669.77
2018-08-03T21:15:30.300Z,99669.52
2018-08-03T21:17:58.953Z,99668.30
2018-08-03T21:20:27.564Z,99660.42
2018-08-03T21:22:56.171Z,99666.37
2018-08-03T21:25:24.808Z,99666.94
2018-08-03T21:27:53.421Z,99665.84
2018-08-03T21:30:22.058Z,99672.98
2018-08-03T21:32:50.698Z,99667.72
2018-08-03T21:35:19.437Z,99672.97
2018-08-03T21:37:49.257Z,99668.20
2018-08-03T21:40:17.852Z,99671.07
2018-08-03T21:42:46.521Z,99668.69
2018-08-03T21:45:15.215Z,99663.08
2018-08-03T21:47:43.869Z,99660.34
2018-08-03T21:50:12.585Z,99660.78
2018-08-03T21:52:41.210Z,99661.93
2018-08-03T21:55:09.907Z,99662.60
2018-08-03T21:57:38.534Z,99663.89
2018-08-03T22:00:09.994Z,99668.04
2018-08-03T22:02:38.662Z,99662.60
2018-08-03T22:05:07.406Z,99658.73
2018-08-03T22:07:35.994Z,99660.28
2018-08-03T22:10:05.124Z,99666.94
2018-08-03T22:12:33.743Z,99663.39
2018-08-03T22:15:02.413Z,99660.86
2018-08-03T22:17:31.115Z,99662.16
2018-08-03T22:19:59.778Z,99658.93
2018-08-03T22:22:28.454Z,99664.23
2018-08-03T22:24:57.154Z,99662.75
2018-08-03T22:27:25.832Z,99663.31
2018-08-03T22:29:54.535Z,99665.31
2018-08-03T22:32:23.209Z,99664.10
2018-08-03T22:34:51.898Z,99667.93
2018-08-03T22:37:20.687Z,99670.23
2018-08-03T22:39:49.606Z,99664.22
2018-08-03T22:42:18.277Z,99669.40
2018-08-03T22:44:46.944Z,99661.86
2018-08-03T22:47:15.666Z,99665.59
2018-08-03T22:49:44.401Z,99669.23
2018-08-03T22:52:13.174Z,99669.78
2018-08-03T22:54:41.849Z,99668.90
2018-08-03T22:57:10.649Z,99666.24
2018-08-03T22:59:39.302Z,99663.66
2018-08-03T23:02:08.990Z,99660.20
2018-08-03T23:04:38.846Z,99662.06
2018-08-03T23:07:07.638Z,99657.22
2018-08-03T23:09:36.326Z,99656.42
2018-08-03T23:12:04.994Z,99658.41
2018-08-03T23:14:33.598Z,99658.02
2018-08-03T23:17:02.264Z,99657.94
2018-08-03T23:19:30.923Z,99651.28
2018-08-03T23:21:59.614Z,99651.39
2018-08-03T23:24:28.263Z,99648.26
2018-08-03T23:26:56.902Z,99653.11
2018-08-03T23:29:25.591Z,99655.52
2018-08-03T23:31:54.278Z,99661.25
2018-08-03T23:34:22.950Z,99659.23
2018-08-03T23:36:51.641Z,99654.67
2018-08-03T23:39:20.314Z,99657.42
2018-08-03T23:41:49.005Z,99655.73
2018-08-03T23:44:17.754Z,99658.72
2018-08-03T23:46:46.410Z,99657.50
2018-08-03T23:49:15.094Z,99661.39
2018-08-03T23:51:43.895Z,99660.09
2018-08-03T23:54:12.710Z,99658.14
2018-08-03T23:56:41.318Z,99659.79
2018-08-03T23:59:09.953Z,99658.44
